Time;durP1;ratioP1;P1;durP2;ratioP2;P2;SDS_P1;SDS_P2;PMS_P1;PMS_P2;Temp;Humidity;BMP_temperature;BMP_pressure;BME280_temperature;BME280_humidity;BME280_pressure;Samples;Min_cycle;Max_cycle;Signal;HPM_P1;HPM_P2
2023/05/21 00:00:22;;;;;;;15.20;10.90;;;;;;;12.88;100.00;93530.78;5050640;28;20037;-59
2023/05/21 00:02:50;;;;;;;15.23;10.82;;;;;;;12.87;100.00;93540.25;5051466;28;20053;-58
2023/05/21 00:05:17;;;;;;;16.10;11.40;;;;;;;12.78;100.00;93530.66;5049892;28;20468;-60
2023/05/21 00:07:45;;;;;;;15.53;10.83;;;;;;;12.77;100.00;93534.63;5050293;28;20067;-60
2023/05/21 00:10:12;;;;;;;15.57;10.90;;;;;;;12.71;100.00;93525.34;5062823;28;20117;-61
2023/05/21 00:12:40;;;;;;;17.00;11.07;;;;;;;12.74;100.00;93523.72;5039230;28;20053;-59
2023/05/21 00:15:08;;;;;;;14.63;10.27;;;;;;;12.72;100.00;93521.41;5057304;28;20053;-60
2023/05/21 00:17:35;;;;;;;16.88;10.65;;;;;;;12.64;100.00;93516.56;5050336;28;20165;-58
2023/05/21 00:20:07;;;;;;;14.23;10.00;;;;;;;12.63;100.00;93520.50;5050139;28;20106;-60
2023/05/21 00:22:35;;;;;;;15.73;10.30;;;;;;;12.52;100.00;93520.84;5057160;28;20056;-59
2023/05/21 00:25:03;;;;;;;62.85;35.72;;;;;;;12.46;100.00;93519.84;5069385;28;20392;-58
2023/05/21 00:27:29;;;;;;;25.90;15.60;;;;;;;12.52;100.00;93518.06;5057494;28;20038;-64
2023/05/21 00:29:56;;;;;;;17.98;12.20;;;;;;;12.54;100.00;93510.16;5040008;28;20037;-59
2023/05/21 00:32:23;;;;;;;18.77;12.03;;;;;;;12.55;100.00;93515.19;5044967;28;20284;-59
2023/05/21 00:34:50;;;;;;;17.90;11.98;;;;;;;12.55;100.00;93506.19;5064750;28;20225;-61
2023/05/21 00:37:16;;;;;;;17.20;11.77;;;;;;;12.50;100.00;93501.22;5062129;28;20059;-59
2023/05/21 00:39:43;;;;;;;17.52;11.45;;;;;;;12.49;100.00;93505.94;5057324;28;20045;-59
2023/05/21 00:42:10;;;;;;;16.40;11.43;;;;;;;12.50;100.00;93490.22;5036931;28;20044;-58
2023/05/21 00:44:38;;;;;;;15.30;10.90;;;;;;;12.45;100.00;93496.25;5049894;28;20082;-58
2023/05/21 00:47:05;;;;;;;18.77;10.43;;;;;;;12.44;100.00;93497.47;5051599;28;20029;-59
2023/05/21 00:49:32;;;;;;;16.52;11.05;;;;;;;12.44;100.00;93497.47;5060745;28;20044;-61
2023/05/21 00:52:00;;;;;;;16.83;11.00;;;;;;;12.31;100.00;93498.19;5066039;28;20052;-58
2023/05/21 00:54:28;;;;;;;19.08;13.02;;;;;;;12.38;100.00;93492.50;5032294;28;20045;-58
2023/05/21 00:56:55;;;;;;;19.20;11.87;;;;;;;12.38;100.00;93489.75;5049620;28;20501;-58
2023/05/21 00:59:22;;;;;;;17.98;11.52;;;;;;;12.39;100.00;93490.53;5049351;28;20037;-59
2023/05/21 01:01:54;;;;;;;17.15;11.65;;;;;;;12.35;100.00;93490.66;5062620;28;20154;-58
2023/05/21 01:04:22;;;;;;;18.27;11.25;;;;;;;12.31;100.00;93489.94;5049381;28;20039;-61
2023/05/21 01:06:49;;;;;;;17.85;12.32;;;;;;;12.31;100.00;93491.94;5062256;28;20039;-59
2023/05/21 01:09:16;;;;;;;16.40;11.40;;;;;;;12.33;100.00;93495.03;5048965;28;20393;-61
2023/05/21 01:11:46;;;;;;;17.88;11.52;;;;;;;12.19;100.00;93485.97;5031703;28;20047;-58
2023/05/21 01:14:15;;;;;;;18.95;11.73;;;;;;;12.18;100.00;93489.16;5048740;28;20481;-61
2023/05/21 01:16:45;;;;;;;15.52;10.10;;;;;;;12.09;100.00;93491.75;5049257;28;20037;-60
2023/05/21 01:19:15;;;;;;;15.18;10.85;;;;;;;11.92;100.00;93483.56;5048556;28;20044;-62
2023/05/21 01:21:49;;;;;;;15.67;10.30;;;;;;;11.97;100.00;93490.50;5049065;28;20129;-59
2023/05/21 01:24:17;;;;;;;15.57;10.40;;;;;;;12.01;100.00;93484.91;5048959;28;20036;-61
2023/05/21 01:26:45;;;;;;;16.48;11.02;;;;;;;12.03;100.00;93488.00;5048911;28;20045;-61
2023/05/21 01:29:13;;;;;;;15.18;10.55;;;;;;;12.09;100.00;93480.75;5031115;28;20047;-58
2023/05/21 01:32:05;;;;;;;19.35;12.00;;;;;;;12.09;100.00;93476.06;5059619;28;20036;-58
2023/05/21 01:34:59;;;;;;;18.87;12.20;;;;;;;12.00;100.00;93478.66;5064788;28;20101;-59
2023/05/21 01:37:33;;;;;;;18.98;12.90;;;;;;;12.02;100.00;93483.72;5060721;28;20044;-62
2023/05/21 01:40:15;;;;;;;21.33;13.35;;;;;;;12.09;100.00;93486.25;5057840;28;20381;-58
2023/05/21 01:42:43;;;;;;;23.95;15.25;;;;;;;12.15;100.00;93484.53;5051111;28;20037;-61
2023/05/21 01:45:13;;;;;;;20.60;14.40;;;;;;;12.18;100.00;93480.91;5061957;28;20056;-58
2023/05/21 01:47:42;;;;;;;20.90;14.13;;;;;;;12.20;100.00;93481.25;5049215;28;20047;-62
2023/05/21 01:50:10;;;;;;;21.13;14.23;;;;;;;12.22;100.00;93476.06;5048779;28;20045;-59
2023/05/21 01:52:36;;;;;;;17.88;12.23;;;;;;;12.21;100.00;93482.00;5049500;28;20057;-58
2023/05/21 01:55:03;;;;;;;19.52;11.57;;;;;;;11.84;100.00;93475.94;5048709;28;20044;-61
2023/05/21 01:57:30;;;;;;;17.95;11.93;;;;;;;11.85;100.00;93477.47;5049311;28;20049;-61
2023/05/21 01:59:58;;;;;;;16.97;11.63;;;;;;;11.91;100.00;93473.00;5048494;28;20390;-58
2023/05/21 02:02:24;;;;;;;17.08;11.75;;;;;;;11.94;100.00;93469.41;5065795;28;20632;-58
2023/05/21 02:04:51;;;;;;;18.00;12.25;;;;;;;11.95;100.00;93465.44;5068930;28;20047;-59
2023/05/21 02:07:18;;;;;;;19.55;12.07;;;;;;;11.97;100.00;93472.06;5051398;28;20059;-59
2023/05/21 02:09:45;;;;;;;18.50;11.90;;;;;;;12.01;100.00;93469.19;5049036;28;20410;-60
2023/05/21 02:12:12;;;;;;;18.73;13.13;;;;;;;12.02;100.00;93473.50;5061665;28;20400;-61
2023/05/21 02:14:38;;;;;;;21.05;13.90;;;;;;;12.05;100.00;93469.84;5068918;28;20419;-58
2023/05/21 02:17:07;;;;;;;23.10;15.15;;;;;;;12.01;100.00;93465.66;5054411;28;20048;-58
2023/05/21 02:19:33;;;;;;;21.25;14.40;;;;;;;12.00;100.00;93464.91;5062027;28;20059;-62
2023/05/21 02:22:00;;;;;;;22.35;14.63;;;;;;;12.01;100.00;93466.44;5048513;28;20447;-59
2023/05/21 02:24:28;;;;;;;21.47;14.13;;;;;;;12.02;100.00;93462.50;5048958;28;20043;-62
2023/05/21 02:26:55;;;;;;;20.85;13.75;;;;;;;11.91;100.00;93460.06;5048592;28;20067;-59
2023/05/21 02:29:21;;;;;;;21.50;13.25;;;;;;;11.94;100.00;93463.91;5061409;28;20465;-58
2023/05/21 02:31:49;;;;;;;19.80;13.32;;;;;;;11.94;100.00;93458.41;5058524;28;20041;-58
2023/05/21 02:34:19;;;;;;;20.73;13.23;;;;;;;11.95;100.00;93457.97;5033243;28;20110;-62
2023/05/21 02:36:51;;;;;;;21.80;14.33;;;;;;;11.91;100.00;93464.75;5058570;28;20101;-58
2023/05/21 02:39:18;;;;;;;21.33;14.40;;;;;;;11.89;100.00;93456.97;5051366;28;20057;-59
2023/05/21 02:41:47;;;;;;;24.08;15.15;;;;;;;11.83;100.00;93452.38;5048183;28;20071;-59
2023/05/21 02:44:14;;;;;;;23.85;14.98;;;;;;;11.76;100.00;93465.13;5030519;28;20036;-58
2023/05/21 02:46:41;;;;;;;23.92;15.68;;;;;;;11.85;100.00;93456.25;5052046;28;20044;-58
2023/05/21 02:49:07;;;;;;;23.10;14.80;;;;;;;11.88;100.00;93451.88;5048171;28;20051;-59
2023/05/21 02:51:34;;;;;;;23.27;15.55;;;;;;;11.89;100.00;93462.47;5048527;28;20041;-59
2023/05/21 02:54:01;;;;;;;22.88;15.07;;;;;;;11.80;100.00;93456.78;5037569;28;20040;-62
2023/05/21 02:56:27;;;;;;;21.42;14.48;;;;;;;11.79;100.00;93457.97;5067859;28;20042;-59
2023/05/21 02:58:54;;;;;;;23.58;15.32;;;;;;;11.74;100.00;93450.28;5048531;28;20059;-58
2023/05/21 03:01:21;;;;;;;21.40;14.03;;;;;;;11.73;100.00;93459.72;5060463;28;20036;-59
2023/05/21 03:03:47;;;;;;;96.75;56.28;;;;;;;11.72;100.00;93453.44;5062837;28;20062;-62
2023/05/21 03:06:15;;;;;;;36.22;22.83;;;;;;;11.73;100.00;93456.97;5061534;28;20152;-59
2023/05/21 03:08:41;;;;;;;23.00;14.50;;;;;;;11.50;100.00;93456.00;5051104;28;20045;-61
2023/05/21 03:11:08;;;;;;;21.83;13.60;;;;;;;11.36;100.00;93448.91;5044377;28;20048;-59
2023/05/21 03:13:35;;;;;;;22.10;13.57;;;;;;;11.33;100.00;93451.75;5035729;28;20049;-58
2023/05/21 03:16:02;;;;;;;21.48;13.43;;;;;;;11.37;100.00;93457.94;5053381;28;20048;-58
2023/05/21 03:18:29;;;;;;;21.13;13.75;;;;;;;11.33;100.00;93460.00;5053644;28;20051;-58
2023/05/21 03:20:57;;;;;;;21.30;13.52;;;;;;;11.31;100.00;93456.91;5063125;28;20470;-61
2023/05/21 03:23:24;;;;;;;20.27;12.85;;;;;;;11.32;100.00;93461.94;5045293;28;20354;-60
2023/05/21 03:25:51;;;;;;;20.93;13.23;;;;;;;11.29;100.00;93460.09;5053134;28;20474;-61
2023/05/21 03:28:18;;;;;;;24.08;13.95;;;;;;;11.11;100.00;93462.50;5050730;28;20083;-61
2023/05/21 03:30:45;;;;;;;20.38;13.35;;;;;;;11.11;100.00;93468.75;5036599;28;20036;-58
2023/05/21 03:33:12;;;;;;;20.40;13.50;;;;;;;11.13;100.00;93460.09;5070626;28;20039;-58
2023/05/21 03:35:39;;;;;;;22.30;13.82;;;;;;;11.08;100.00;93469.59;5067653;28;20033;-60
2023/05/21 03:38:06;;;;;;;19.50;12.80;;;;;;;11.09;100.00;93457.44;5061448;28;20049;-59
2023/05/21 03:40:33;;;;;;;19.83;12.65;;;;;;;11.07;100.00;93453.59;5063697;28;20028;-62
2023/05/21 03:43:00;;;;;;;21.10;13.15;;;;;;;11.06;100.00;93450.03;5050508;28;20041;-59
2023/05/21 03:45:26;;;;;;;18.30;12.68;;;;;;;11.01;100.00;93456.06;5051088;28;20039;-58
2023/05/21 03:47:53;;;;;;;20.27;13.10;;;;;;;11.02;100.00;93456.84;5042835;28;20074;-58
2023/05/21 03:50:20;;;;;;;19.97;13.47;;;;;;;11.02;100.00;93459.56;5061842;28;20055;-58
2023/05/21 03:52:47;;;;;;;19.25;13.13;;;;;;;10.97;100.00;93466.38;5052788;28;20043;-58
2023/05/21 03:55:13;;;;;;;18.92;12.85;;;;;;;10.97;100.00;93461.63;5050564;28;20045;-61
2023/05/21 03:57:40;;;;;;;20.75;13.45;;;;;;;10.99;100.00;93461.97;5049077;28;20084;-58
2023/05/21 04:00:07;;;;;;;19.75;13.35;;;;;;;11.02;100.00;93457.59;5060346;28;20072;-58
2023/05/21 04:02:34;;;;;;;19.43;13.20;;;;;;;11.05;100.00;93462.25;5050785;28;20076;-59
2023/05/21 04:05:02;;;;;;;19.55;13.00;;;;;;;11.07;100.00;93464.56;5049871;28;20040;-62
2023/05/21 04:07:29;;;;;;;20.23;13.30;;;;;;;10.92;100.00;93470.38;5063943;28;20062;-61
2023/05/21 04:09:55;;;;;;;18.88;12.45;;;;;;;10.86;100.00;93474.84;5049193;28;20039;-60
2023/05/21 04:12:22;;;;;;;20.23;13.00;;;;;;;10.87;100.00;93468.16;5049999;28;20033;-58
2023/05/21 04:14:49;;;;;;;19.33;13.03;;;;;;;10.96;100.00;93473.81;5032594;28;20055;-58
2023/05/21 04:17:17;;;;;;;20.20;13.13;;;;;;;11.04;100.00;93466.19;5052571;28;20036;-60
2023/05/21 04:19:44;;;;;;;20.17;13.20;;;;;;;11.14;100.00;93475.38;5059981;28;20049;-59
2023/05/21 04:22:11;;;;;;;21.27;13.23;;;;;;;11.20;100.00;93468.91;5050020;28;20047;-59
2023/05/21 04:24:38;;;;;;;20.65;13.93;;;;;;;11.05;100.00;93478.72;5033236;28;20051;-61
2023/05/21 04:27:04;;;;;;;21.47;13.50;;;;;;;11.17;100.00;93480.78;5050339;28;20045;-59
2023/05/21 04:29:31;;;;;;;19.63;12.98;;;;;;;11.24;100.00;93471.56;5051139;28;20044;-58
2023/05/21 04:31:58;;;;;;;22.27;14.60;;;;;;;11.14;100.00;93478.09;5050157;28;20508;-56
2023/05/21 04:34:24;;;;;;;21.33;14.55;;;;;;;10.97;100.00;93486.34;5050712;28;20047;-61
2023/05/21 04:36:52;;;;;;;24.25;16.10;;;;;;;11.06;100.00;93495.97;5052816;28;20056;-59
2023/05/21 04:39:19;;;;;;;23.43;15.47;;;;;;;11.19;100.00;93488.59;5051661;28;20037;-59
2023/05/21 04:41:46;;;;;;;22.70;14.93;;;;;;;11.31;100.00;93487.13;5050019;28;20045;-61
2023/05/21 04:44:13;;;;;;;23.95;15.50;;;;;;;11.37;100.00;93486.16;5063019;28;20404;-58
2023/05/21 04:46:41;;;;;;;22.90;15.13;;;;;;;11.37;100.00;93486.16;5056214;28;20175;-58
2023/05/21 04:49:09;;;;;;;23.55;15.90;;;;;;;11.50;100.00;93477.97;5053817;28;20045;-59
2023/05/21 04:51:36;;;;;;;21.27;14.03;;;;;;;11.58;100.00;93482.09;5050483;28;20067;-59
2023/05/21 04:54:03;;;;;;;26.15;15.93;;;;;;;11.69;100.00;93489.28;5049700;28;20063;-62
2023/05/21 04:56:30;;;;;;;24.52;15.80;;;;;;;11.78;100.00;93483.94;5050401;28;20047;-59
2023/05/21 04:58:57;;;;;;;23.65;15.50;;;;;;;11.86;100.00;93493.53;5050448;28;20052;-59
2023/05/21 05:01:25;;;;;;;21.90;15.30;;;;;;;11.92;100.00;93493.81;5062558;28;20855;-58
2023/05/21 05:03:52;;;;;;;23.37;15.27;;;;;;;12.00;100.00;93489.66;5050211;28;20055;-58
2023/05/21 05:06:20;;;;;;;23.77;15.52;;;;;;;12.06;100.00;93492.66;5045262;28;20087;-58
2023/05/21 05:08:48;;;;;;;22.73;15.45;;;;;;;12.11;100.00;93492.91;5062372;28;20044;-58
2023/05/21 05:11:15;;;;;;;23.63;15.32;;;;;;;12.25;100.00;93488.94;5053910;28;20054;-59
2023/05/21 05:13:42;;;;;;;22.75;15.82;;;;;;;12.37;100.00;93495.69;5070309;28;20066;-62
2023/05/21 05:16:08;;;;;;;23.57;15.23;;;;;;;12.45;100.00;93494.28;5064627;28;20037;-59
2023/05/21 05:18:35;;;;;;;22.90;16.10;;;;;;;12.47;100.00;93500.09;5059803;28;20485;-62
2023/05/21 05:21:02;;;;;;;21.95;15.48;;;;;;;12.72;100.00;93487.59;5052699;28;20045;-58
2023/05/21 05:23:29;;;;;;;22.30;14.88;;;;;;;12.89;100.00;93494.53;5049735;28;20496;-58
2023/05/21 05:25:56;;;;;;;22.77;15.73;;;;;;;12.99;100.00;93492.66;5058426;28;20044;-61
2023/05/21 05:28:22;;;;;;;22.77;15.27;;;;;;;13.19;100.00;93486.91;5055490;28;20158;-58
2023/05/21 05:30:49;;;;;;;22.88;14.88;;;;;;;13.46;100.00;93489.22;5049967;28;20043;-58
2023/05/21 05:33:16;;;;;;;24.10;15.48;;;;;;;13.77;100.00;93485.81;5049058;28;20049;-61
2023/05/21 05:35:43;;;;;;;23.10;15.18;;;;;;;14.06;100.00;93487.56;5062817;28;20045;-58
2023/05/21 05:38:09;;;;;;;22.05;15.48;;;;;;;14.35;100.00;93496.38;5056673;28;20053;-58
2023/05/21 05:40:36;;;;;;;21.63;14.80;;;;;;;14.57;100.00;93492.84;5049668;28;20041;-61
2023/05/21 05:43:03;;;;;;;20.98;15.10;;;;;;;14.58;100.00;93486.88;5048897;28;20044;-61
2023/05/21 05:45:30;;;;;;;23.88;15.25;;;;;;;14.87;100.00;93488.56;5049682;28;20041;-58
2023/05/21 05:47:56;;;;;;;22.85;15.70;;;;;;;15.35;100.00;93489.03;5055577;28;20048;-58
2023/05/21 05:50:23;;;;;;;22.17;16.08;;;;;;;15.69;100.00;93486.47;5061661;28;20693;-58
2023/05/21 05:52:50;;;;;;;21.43;15.73;;;;;;;16.23;100.00;93482.22;5049419;28;20062;-60
2023/05/21 05:55:17;;;;;;;22.77;16.38;;;;;;;16.48;100.00;93477.56;5044526;28;20058;-59
2023/05/21 05:57:44;;;;;;;21.10;15.75;;;;;;;16.86;100.00;93474.28;5049358;28;20084;-61
2023/05/21 06:00:11;;;;;;;22.08;16.58;;;;;;;15.94;100.00;93477.91;5048081;28;20095;-62
2023/05/21 06:02:38;;;;;;;21.40;16.58;;;;;;;15.72;100.00;93491.91;5066610;28;20070;-58
2023/05/21 06:05:06;;;;;;;22.40;16.63;;;;;;;15.42;100.00;93489.97;5059742;28;20036;-58
2023/05/21 06:07:33;;;;;;;22.35;16.90;;;;;;;15.75;100.00;93490.19;5048675;28;20033;-58
2023/05/21 06:09:59;;;;;;;24.33;17.85;;;;;;;15.76;100.00;93488.97;5048274;28;20067;-61
2023/05/21 06:12:26;;;;;;;23.35;17.30;;;;;;;15.26;100.00;93482.72;5049082;28;20523;-59
2023/05/21 06:14:53;;;;;;;24.60;18.00;;;;;;;15.47;100.00;93489.34;5049068;28;20045;-59
2023/05/21 06:17:20;;;;;;;25.07;17.43;;;;;;;15.88;100.00;93487.31;5035869;28;20047;-58
2023/05/21 06:19:47;;;;;;;26.42;17.80;;;;;;;15.42;100.00;93490.72;5035162;28;20032;-59
2023/05/21 06:22:13;;;;;;;23.27;17.17;;;;;;;15.84;100.00;93486.69;5068061;28;20096;-59
2023/05/21 06:24:40;;;;;;;24.80;17.20;;;;;;;15.80;100.00;93489.59;5061092;28;20033;-61
2023/05/21 06:27:07;;;;;;;23.60;17.88;;;;;;;14.91;100.00;93486.44;5052314;28;20043;-59
2023/05/21 06:29:34;;;;;;;26.33;19.00;;;;;;;14.72;100.00;93491.09;5049006;28;20053;-58
2023/05/21 06:32:00;;;;;;;25.65;18.73;;;;;;;14.71;100.00;93492.31;5060450;28;20041;-58
2023/05/21 06:34:27;;;;;;;24.60;18.25;;;;;;;14.95;100.00;93480.75;5060990;28;20113;-59
2023/05/21 06:36:54;;;;;;;26.05;18.02;;;;;;;15.07;100.00;93485.41;5053941;28;20036;-61
2023/05/21 06:39:21;;;;;;;24.70;17.83;;;;;;;15.61;100.00;93482.47;5059342;28;20045;-61
2023/05/21 06:41:47;;;;;;;23.27;17.80;;;;;;;15.53;100.00;93482.78;5045160;28;20037;-59
2023/05/21 06:44:17;;;;;;;23.35;17.17;;;;;;;15.88;100.00;93484.53;5060708;28;20104;-58
2023/05/21 06:46:44;;;;;;;25.55;17.90;;;;;;;15.73;100.00;93485.13;5062250;28;20053;-58
2023/05/21 06:49:12;;;;;;;23.52;17.70;;;;;;;16.06;100.00;93481.00;5047687;28;20040;-58
2023/05/21 06:51:40;;;;;;;23.70;16.90;;;;;;;15.75;100.00;93490.19;5048559;28;20037;-59
2023/05/21 06:54:06;;;;;;;21.80;15.60;;;;;;;16.93;100.00;93475.94;5047769;28;20044;-59
2023/05/21 06:56:33;;;;;;;23.63;16.42;;;;;;;15.90;100.00;93484.84;5050401;28;20048;-60
2023/05/21 06:59:00;;;;;;;20.83;16.13;;;;;;;17.11;100.00;93475.84;5054331;28;20092;-60
2023/05/21 07:01:27;;;;;;;23.35;17.88;;;;;;;16.19;100.00;93478.84;5060918;28;20481;-62
2023/05/21 07:03:53;;;;;;;20.42;16.45;;;;;;;17.40;100.00;93484.81;5048065;28;20110;-59
2023/05/21 07:06:21;;;;;;;23.80;17.93;;;;;;;17.41;100.00;93484.34;5055363;28;20033;-59
2023/05/21 07:08:48;;;;;;;20.73;15.55;;;;;;;19.94;100.00;93479.72;5054533;28;20550;-60
2023/05/21 07:11:15;;;;;;;22.98;16.67;;;;;;;21.02;100.00;93478.81;5047119;28;20448;-60
2023/05/21 07:13:42;;;;;;;18.65;15.05;;;;;;;22.82;90.99;93476.22;5048696;28;20037;-63
2023/05/21 07:16:08;;;;;;;18.08;15.93;;;;;;;21.35;94.28;93478.31;5067515;28;20043;-61
2023/05/21 07:18:36;;;;;;;21.20;16.53;;;;;;;22.08;89.78;93480.03;5037035;28;20110;-60
2023/05/21 07:21:03;;;;;;;18.50;16.23;;;;;;;21.86;87.64;93477.91;5042654;28;20045;-60
2023/05/21 07:23:29;;;;;;;18.02;15.13;;;;;;;23.14;82.31;93478.81;5030304;28;20041;-60
2023/05/21 07:25:56;;;;;;;17.40;15.52;;;;;;;24.20;74.86;93476.34;5055330;28;20048;-61
2023/05/21 07:28:23;;;;;;;17.05;14.95;;;;;;;25.48;66.20;93462.84;5053577;28;20043;-60
2023/05/21 07:30:49;;;;;;;16.40;14.60;;;;;;;26.27;62.51;93464.84;5060266;28;20103;-60
2023/05/21 07:33:19;;;;;;;17.20;14.98;;;;;;;25.22;67.35;93468.94;5060196;28;20052;-58
2023/05/21 07:35:46;;;;;;;15.98;14.02;;;;;;;24.81;70.78;93469.72;5056409;28;20048;-64
2023/05/21 07:38:12;;;;;;;17.52;15.73;;;;;;;22.92;74.15;93465.56;5052060;28;20048;-58
2023/05/21 07:40:39;;;;;;;19.25;17.15;;;;;;;19.86;100.00;93470.25;5049495;28;20049;-60
2023/05/21 07:43:06;;;;;;;18.93;16.93;;;;;;;20.92;94.58;93463.53;5043840;28;20148;-66
2023/05/21 07:45:33;;;;;;;18.95;16.90;;;;;;;20.63;95.51;93464.53;5017440;28;20803;-61
2023/05/21 07:48:00;;;;;;;18.23;15.23;;;;;;;22.32;89.36;93462.88;5062613;28;20029;-60
2023/05/21 07:50:27;;;;;;;18.15;16.10;;;;;;;22.06;87.37;93455.38;5057599;28;20491;-65
2023/05/21 07:52:53;;;;;;;18.80;16.33;;;;;;;20.54;96.63;93463.41;5059136;28;20043;-60
2023/05/21 07:55:20;;;;;;;21.47;16.90;;;;;;;20.20;99.76;93459.47;5056289;28;20048;-63
2023/05/21 07:57:47;;;;;;;17.95;15.73;;;;;;;22.05;88.88;93461.47;5055371;28;20053;-61
2023/05/21 08:00:14;;;;;;;19.38;16.00;;;;;;;20.19;100.00;93462.78;5038181;28;20040;-65
2023/05/21 08:02:41;;;;;;;18.95;16.80;;;;;;;21.03;93.32;93460.84;5055315;28;20067;-61
2023/05/21 08:05:09;;;;;;;21.45;18.52;;;;;;;19.22;100.00;93471.84;5065741;28;20043;-59
2023/05/21 08:07:36;;;;;;;23.13;18.30;;;;;;;19.65;100.00;93465.88;5067007;28;20047;-59
2023/05/21 08:10:03;;;;;;;20.20;16.85;;;;;;;22.13;91.56;93466.09;5065824;28;20041;-59
2023/05/21 08:12:30;;;;;;;17.25;14.23;;;;;;;24.47;79.74;93458.66;5047038;28;20034;-60
2023/05/21 08:14:58;;;;;;;19.08;16.25;;;;;;;22.75;82.40;93462.72;5067161;28;20032;-63
2023/05/21 08:17:24;;;;;;;18.38;14.25;;;;;;;26.43;68.32;93454.66;5043300;28;20638;-62
2023/05/21 08:19:51;;;;;;;19.23;16.63;;;;;;;23.15;77.90;93459.97;5065384;28;20089;-59
2023/05/21 08:22:18;;;;;;;20.55;17.30;;;;;;;20.11;98.96;93476.38;5063325;28;20052;-60
2023/05/21 08:24:45;;;;;;;19.95;17.08;;;;;;;23.35;81.12;93468.13;5060685;28;20043;-59
2023/05/21 08:27:14;;;;;;;19.63;17.10;;;;;;;21.07;90.34;93455.78;5032218;28;20063;-60
2023/05/21 08:29:41;;;;;;;18.08;15.00;;;;;;;23.70;77.35;93472.38;5062833;28;20047;-63
2023/05/21 08:32:08;;;;;;;14.77;12.83;;;;;;;25.89;73.08;93453.47;5066338;28;20113;-58
2023/05/21 08:34:35;;;;;;;17.67;15.25;;;;;;;25.79;62.18;93469.19;5065933;28;20036;-61
2023/05/21 08:37:02;;;;;;;16.85;15.05;;;;;;;25.34;68.88;93463.22;5062886;28;20057;-61
2023/05/21 08:39:29;;;;;;;15.05;12.98;;;;;;;27.89;59.33;93465.06;5065783;28;20396;-59
2023/05/21 08:42:03;;;;;;;15.88;14.15;;;;;;;28.81;51.08;93462.72;5062544;28;20044;-58
2023/05/21 08:44:32;;;;;;;15.90;14.20;;;;;;;28.63;52.73;93456.69;5062987;28;20643;-65
2023/05/21 08:47:01;;;;;;;13.75;11.90;;;;;;;31.86;44.21;93452.31;5064464;28;20049;-61
2023/05/21 08:49:32;;;;;;;13.88;11.73;;;;;;;32.81;41.65;93459.53;5063551;28;20714;-58
2023/05/21 08:51:59;;;;;;;14.18;12.68;;;;;;;29.74;46.17;93453.91;5061689;28;20047;-58
2023/05/21 08:54:26;;;;;;;11.70;10.50;;;;;;;33.79;38.94;93455.97;5064684;28;20507;-59
2023/05/21 08:56:55;;;;;;;11.87;10.67;;;;;;;35.69;33.92;93449.34;5063424;28;20067;-59
2023/05/21 08:59:22;;;;;;;10.38;9.38;;;;;;;37.14;32.98;93445.97;5063671;28;20051;-59
2023/05/21 09:01:50;;;;;;;10.52;9.43;;;;;;;36.10;32.13;93441.81;5059820;28;20057;-62
2023/05/21 09:04:18;;;;;;;9.85;8.93;;;;;;;36.38;31.35;93442.47;5062413;28;20048;-62
2023/05/21 09:06:47;;;;;;;12.65;11.10;;;;;;;36.51;31.25;93435.59;5063222;28;20062;-62
2023/05/21 09:09:29;;;;;;;10.60;9.50;;;;;;;36.33;31.63;93434.97;5064945;28;20051;-59
2023/05/21 09:11:55;;;;;;;11.68;9.80;;;;;;;35.85;31.57;93430.59;5062415;28;20037;-60
2023/05/21 09:14:23;;;;;;;9.77;8.60;;;;;;;35.79;31.58;93433.75;5061926;28;20048;-63
2023/05/21 09:16:50;;;;;;;9.05;8.15;;;;;;;35.77;29.77;93435.69;5064184;28;20063;-62
2023/05/21 09:19:21;;;;;;;8.73;7.72;;;;;;;35.70;29.31;93439.41;5062016;28;20477;-62
2023/05/21 09:21:51;;;;;;;9.57;8.60;;;;;;;32.30;33.74;93434.28;5064622;28;20071;-60
2023/05/21 09:24:21;;;;;;;8.70;7.38;;;;;;;34.09;31.83;93434.28;5063756;28;20453;-60
2023/05/21 09:26:48;;;;;;;8.70;7.80;;;;;;;34.17;31.33;93437.09;5063271;28;20045;-60
2023/05/21 09:29:15;;;;;;;7.93;6.93;;;;;;;35.41;29.23;93426.47;5064242;28;20048;-59
2023/05/21 09:31:44;;;;;;;9.38;8.10;;;;;;;34.22;32.02;93430.38;5046456;28;20044;-60
2023/05/21 09:34:12;;;;;;;9.30;7.50;;;;;;;34.15;31.74;93436.91;5061897;28;20148;-59
2023/05/21 09:36:39;;;;;;;9.13;7.38;;;;;;;34.49;31.27;93433.34;5061087;28;20055;-61
2023/05/21 09:39:07;;;;;;;8.05;7.25;;;;;;;33.95;32.50;93438.78;5054581;28;20059;-65
2023/05/21 09:41:34;;;;;;;7.40;6.60;;;;;;;32.40;32.76;93438.81;5054017;28;20145;-67
2023/05/21 09:44:02;;;;;;;7.93;7.07;;;;;;;31.22;33.99;93446.34;5058747;28;20052;-61
2023/05/21 09:46:41;;;;;;;8.93;7.00;;;;;;;31.22;34.34;93439.94;5057359;28;20048;-60
2023/05/21 09:49:25;;;;;;;8.65;6.88;;;;;;;30.41;35.62;93437.19;5055673;28;20040;-63
2023/05/21 09:51:56;;;;;;;9.43;7.63;;;;;;;31.92;34.93;93437.94;5059599;28;20036;-59
2023/05/21 09:54:23;;;;;;;10.63;8.68;;;;;;;31.51;35.98;93436.97;5058481;28;20045;-60
2023/05/21 09:56:53;;;;;;;9.52;8.00;;;;;;;31.39;35.31;93439.38;5057591;28;20043;-63
2023/05/21 09:59:20;;;;;;;9.97;7.37;;;;;;;32.03;34.06;93437.56;5056689;28;21464;-60
2023/05/21 10:01:51;;;;;;;8.48;7.50;;;;;;;31.90;34.91;93438.50;5040850;28;20157;-65
2023/05/21 10:04:18;;;;;;;8.32;7.30;;;;;;;32.49;33.61;93437.44;5056879;28;20063;-66
2023/05/21 10:06:46;;;;;;;8.88;7.38;;;;;;;33.42;32.52;93440.66;5057295;28;20183;-65
2023/05/21 10:09:17;;;;;;;9.02;7.40;;;;;;;33.79;31.89;93435.31;5054113;28;20047;-60
2023/05/21 10:11:45;;;;;;;7.97;6.67;;;;;;;33.53;32.17;93431.69;5057377;28;20041;-63
2023/05/21 10:14:19;;;;;;;7.57;6.80;;;;;;;34.27;30.86;93432.25;5055764;28;20064;-60
2023/05/21 10:16:46;;;;;;;9.38;7.28;;;;;;;33.62;31.13;93436.00;5056388;28;20369;-59
2023/05/21 10:19:14;;;;;;;10.52;6.72;;;;;;;34.62;29.60;93423.69;5056121;28;20384;-61
2023/05/21 10:21:43;;;;;;;9.25;6.60;;;;;;;35.43;28.63;93419.44;5057117;28;20048;-60
2023/05/21 10:24:12;;;;;;;7.20;6.27;;;;;;;34.67;29.65;93422.72;5049381;28;20040;-60
2023/05/21 10:26:40;;;;;;;7.07;6.38;;;;;;;34.20;30.02;93419.56;5052099;28;20063;-61
2023/05/21 10:29:08;;;;;;;8.43;6.63;;;;;;;34.03;31.18;93413.84;5040647;28;20037;-66
2023/05/21 10:31:37;;;;;;;7.50;6.70;;;;;;;33.74;30.94;93424.91;5055165;28;20495;-64
2023/05/21 10:34:05;;;;;;;7.50;6.70;;;;;;;32.23;32.26;93418.78;5054649;28;20041;-60
2023/05/21 10:36:35;;;;;;;7.83;7.03;;;;;;;31.40;34.62;93413.31;5057616;28;20037;-59
2023/05/21 10:39:02;;;;;;;7.32;6.40;;;;;;;32.81;32.43;93413.31;5052906;28;20045;-59
2023/05/21 10:41:40;;;;;;;8.35;6.82;;;;;;;32.83;31.78;93410.66;5048944;28;20083;-61
2023/05/21 10:44:39;;;;;;;7.00;6.30;;;;;;;32.67;31.92;93409.22;5052040;28;20048;-60
2023/05/21 10:47:15;;;;;;;7.00;6.30;;;;;;;33.11;31.14;93415.25;5054993;28;20044;-60
2023/05/21 10:49:55;;;;;;;8.03;6.60;;;;;;;32.17;32.62;93413.31;5051386;28;20041;-60
2023/05/21 10:52:51;;;;;;;7.50;6.68;;;;;;;31.79;34.09;93413.34;5058229;28;20036;-60
2023/05/21 10:55:36;;;;;;;8.88;6.90;;;;;;;31.27;34.48;93407.84;5029738;28;20047;-59
2023/05/21 10:58:47;;;;;;;8.43;7.40;;;;;;;30.97;35.63;93411.34;5053011;28;20507;-60
2023/05/21 11:01:17;;;;;;;7.55;6.70;;;;;;;30.84;34.87;93412.97;5053102;28;20063;-65
2023/05/21 11:03:48;;;;;;;8.13;7.13;;;;;;;30.85;35.12;93411.69;5056065;28;20037;-59
2023/05/21 11:06:24;;;;;;;7.40;6.63;;;;;;;30.24;36.08;93411.38;5057507;28;20493;-59
2023/05/21 11:08:52;;;;;;;7.63;6.82;;;;;;;30.57;35.33;93408.94;5059224;28;20476;-59
2023/05/21 11:11:43;;;;;;;7.78;6.32;;;;;;;30.98;35.26;93407.94;5063690;28;20036;-60
2023/05/21 11:14:39;;;;;;;8.55;6.50;;;;;;;31.81;34.25;93410.69;5059131;28;20063;-60
2023/05/21 11:17:12;;;;;;;9.27;6.60;;;;;;;31.53;33.81;93409.56;5063452;28;20072;-61
2023/05/21 11:19:45;;;;;;;7.85;7.05;;;;;;;30.09;35.81;93403.59;5055922;28;20101;-63